createdAt,value
2022-11-14T00:01:34.466Z,139.40
2022-11-14T00:04:23.304Z,147.88
2022-11-14T00:07:11.717Z,126.70
2022-11-14T00:12:43.876Z,144.35
2022-11-14T00:15:29.546Z,128.30
2022-11-14T00:18:15.544Z,128.40
2022-11-14T00:21:01.576Z,99.07
2022-11-14T00:23:47.594Z,144.73
2022-11-14T00:26:33.656Z,141.20
2022-11-14T00:29:19.626Z,129.73
2022-11-14T00:32:05.603Z,159.52
2022-11-14T00:34:51.634Z,130.50
2022-11-14T00:37:37.654Z,164.10
2022-11-14T00:40:23.530Z,143.68
2022-11-14T00:43:09.726Z,146.55
2022-11-14T00:45:55.725Z,180.90
2022-11-14T00:48:41.936Z,164.38
2022-11-14T00:51:28.154Z,160.88
2022-11-14T00:54:14.246Z,152.65
2022-11-14T00:57:00.337Z,157.75
2022-11-14T00:59:46.259Z,134.88
2022-11-14T01:02:32.198Z,198.18
2022-11-14T01:05:18.172Z,136.98
2022-11-14T01:08:04.090Z,134.82
2022-11-14T01:10:51.329Z,128.93
2022-11-14T01:13:37.319Z,150.45
2022-11-14T01:16:23.208Z,156.68
2022-11-14T01:19:09.319Z,141.98
2022-11-14T01:21:55.358Z,131.73
2022-11-14T01:24:41.190Z,123.47
2022-11-14T01:27:27.312Z,113.20
2022-11-14T01:30:13.649Z,137.23
2022-11-14T01:32:59.557Z,124.25
2022-11-14T01:35:45.565Z,112.70
2022-11-14T01:38:31.701Z,102.25
2022-11-14T01:41:17.986Z,130.20
2022-11-14T01:44:04.164Z,120.38
2022-11-14T01:46:54.128Z,158.95
2022-11-14T01:49:43.333Z,137.93
2022-11-14T01:52:34.229Z,90.85
2022-11-14T01:55:20.230Z,96.50
2022-11-14T01:58:06.237Z,157.40
2022-11-14T02:00:52.222Z,104.65
2022-11-14T02:03:40.292Z,113.95
2022-11-14T02:06:28.574Z,143.00
2022-11-14T02:09:14.481Z,112.88
2022-11-14T02:12:01.785Z,93.28
2022-11-14T02:14:50.598Z,102.25
2022-11-14T02:17:36.754Z,122.28
2022-11-14T02:20:24.057Z,142.98
2022-11-14T02:23:13.595Z,177.77
2022-11-14T02:25:59.916Z,167.25
2022-11-14T02:28:46.149Z,173.80
2022-11-14T02:31:32.358Z,151.60
2022-11-14T02:34:20.423Z,137.70
2022-11-14T02:37:06.815Z,136.10
2022-11-14T02:39:53.301Z,130.00
2022-11-14T02:42:39.140Z,106.15
2022-11-14T02:45:24.968Z,146.00
2022-11-14T02:48:11.103Z,137.52
2022-11-14T02:50:57.073Z,127.50
2022-11-14T02:53:42.949Z,108.60
2022-11-14T02:56:29.099Z,115.60
2022-11-14T02:59:15.293Z,101.13
2022-11-14T03:02:01.379Z,149.30
2022-11-14T03:04:47.320Z,118.68
2022-11-14T03:07:33.327Z,116.40
2022-11-14T03:10:19.424Z,119.95
2022-11-14T03:13:05.609Z,72.15
2022-11-14T03:15:51.492Z,119.10
2022-11-14T03:18:37.474Z,105.68
2022-11-14T03:21:23.926Z,105.72
2022-11-14T03:24:09.581Z,119.05
2022-11-14T03:26:55.590Z,125.07
2022-11-14T03:29:41.473Z,639.55
2022-11-14T03:32:27.393Z,100.38
2022-11-14T03:35:13.462Z,168.30
2022-11-14T03:37:59.716Z,298.73
2022-11-14T03:40:45.768Z,167.07
2022-11-14T03:43:32.894Z,131.05
2022-11-14T03:46:19.008Z,114.95
2022-11-14T03:49:05.110Z,98.50
2022-11-14T03:51:50.977Z,89.40
2022-11-14T03:54:36.942Z,91.82
2022-11-14T03:57:23.001Z,78.60
2022-11-14T04:00:09.412Z,62.53
2022-11-14T04:02:58.495Z,83.05
2022-11-14T04:05:45.516Z,111.10
2022-11-14T04:08:31.685Z,75.13
2022-11-14T04:11:17.756Z,77.28
2022-11-14T04:14:03.904Z,99.85
2022-11-14T04:16:49.982Z,91.47
2022-11-14T04:19:36.207Z,60.50
2022-11-14T04:22:22.037Z,74.32
2022-11-14T04:27:53.911Z,100.20
2022-11-14T04:30:39.895Z,105.55
2022-11-14T04:33:26.214Z,100.03
2022-11-14T04:36:12.305Z,156.75
2022-11-14T04:38:58.146Z,144.20
2022-11-14T04:41:44.498Z,84.18
2022-11-14T04:44:30.995Z,84.78
2022-11-14T04:47:16.874Z,82.45
2022-11-14T04:50:03.167Z,68.75
2022-11-14T04:52:52.768Z,75.72
2022-11-14T04:55:38.950Z,63.35
2022-11-14T04:58:24.999Z,70.72
2022-11-14T05:01:11.804Z,68.88
2022-11-14T05:03:57.555Z,68.53
2022-11-14T05:06:43.631Z,72.57
2022-11-14T05:09:29.514Z,65.50
2022-11-14T05:12:15.553Z,66.38
2022-11-14T05:15:01.856Z,68.97
2022-11-14T05:17:47.939Z,57.25
2022-11-14T05:20:34.233Z,65.32
2022-11-14T05:23:21.297Z,67.70
2022-11-14T05:26:08.503Z,59.78
2022-11-14T05:28:54.222Z,56.83
2022-11-14T05:31:40.434Z,54.28
2022-11-14T05:34:26.482Z,56.40
2022-11-14T05:37:12.661Z,58.25
2022-11-14T05:39:58.682Z,50.72
2022-11-14T05:42:44.605Z,48.15
2022-11-14T05:45:31.844Z,49.47
2022-11-14T05:48:18.079Z,49.13
2022-11-14T05:51:05.212Z,55.00
2022-11-14T05:53:50.819Z,54.83
2022-11-14T05:56:36.814Z,57.20
2022-11-14T05:59:22.855Z,70.18
2022-11-14T06:02:08.969Z,76.97
2022-11-14T06:04:54.778Z,67.40
2022-11-14T06:07:40.786Z,101.32
2022-11-14T06:10:27.079Z,85.50
2022-11-14T06:13:13.276Z,78.22
2022-11-14T06:16:00.858Z,59.28
2022-11-14T06:18:46.971Z,55.60
2022-11-14T06:21:32.802Z,61.97
2022-11-14T06:24:20.179Z,41.38
2022-11-14T06:27:06.534Z,42.38
2022-11-14T06:29:52.561Z,45.80
2022-11-14T06:32:38.805Z,40.13
2022-11-14T06:35:27.425Z,42.80
2022-11-14T06:38:13.391Z,38.67
2022-11-14T06:41:06.319Z,36.58
2022-11-14T06:43:55.381Z,39.30
2022-11-14T06:46:41.392Z,41.78
2022-11-14T06:49:28.004Z,45.65
2022-11-14T06:52:14.074Z,41.45
2022-11-14T06:55:00.126Z,40.53
2022-11-14T06:57:46.075Z,38.53
2022-11-14T07:00:32.051Z,39.35
2022-11-14T07:03:18.039Z,37.30
2022-11-14T07:06:04.952Z,36.05
2022-11-14T07:08:51.077Z,31.02
2022-11-14T07:11:37.810Z,42.17
2022-11-14T07:14:23.935Z,34.38
2022-11-14T07:17:10.142Z,38.67
2022-11-14T07:19:56.112Z,36.10
2022-11-14T07:22:42.153Z,39.35
2022-11-14T07:25:28.133Z,47.70
2022-11-14T07:28:14.042Z,41.00
2022-11-14T07:31:00.235Z,43.67
2022-11-14T07:33:47.022Z,31.92
2022-11-14T07:36:32.750Z,32.58
2022-11-14T07:39:18.819Z,35.60
2022-11-14T07:42:04.866Z,31.63
2022-11-14T07:44:50.846Z,32.72
2022-11-14T07:47:37.126Z,31.65
2022-11-14T07:50:22.818Z,31.35
2022-11-14T07:53:08.881Z,34.38
2022-11-14T07:55:55.284Z,35.47
2022-11-14T07:58:42.369Z,34.47
2022-11-14T08:01:28.213Z,107.75
2022-11-14T08:04:14.114Z,100.95
2022-11-14T08:07:00.024Z,35.45
2022-11-14T08:09:46.101Z,41.28
2022-11-14T08:12:31.901Z,35.22
2022-11-14T08:15:17.884Z,33.13
2022-11-14T08:18:04.106Z,34.88
2022-11-14T08:20:50.074Z,33.75
2022-11-14T08:23:36.088Z,35.25
2022-11-14T08:26:22.146Z,34.70
2022-11-14T08:29:08.057Z,35.72
2022-11-14T08:31:58.759Z,36.83
2022-11-14T08:34:46.417Z,33.33
2022-11-14T08:37:32.419Z,39.88
2022-11-14T08:40:18.436Z,37.85
2022-11-14T08:43:05.766Z,35.30
2022-11-14T08:45:51.414Z,35.72
2022-11-14T08:48:37.406Z,35.20
2022-11-14T08:51:23.596Z,36.40
2022-11-14T08:54:09.579Z,81.30
2022-11-14T08:56:55.533Z,33.83
2022-11-14T08:59:44.571Z,35.28
2022-11-14T09:02:30.423Z,40.45
2022-11-14T09:05:16.415Z,33.13
2022-11-14T09:08:02.471Z,38.15
2022-11-14T09:10:48.348Z,38.30
2022-11-14T09:13:35.140Z,37.83
2022-11-14T09:16:21.068Z,37.60
2022-11-14T09:19:06.986Z,47.15
2022-11-14T09:21:52.961Z,37.13
2022-11-14T09:24:38.941Z,40.53
2022-11-14T09:27:27.136Z,42.80
2022-11-14T09:30:13.594Z,37.35
2022-11-14T09:33:02.097Z,42.78
2022-11-14T09:35:49.280Z,45.22
2022-11-14T09:38:38.635Z,34.20
2022-11-14T09:41:25.150Z,30.63
2022-11-14T09:44:23.014Z,34.15
2022-11-14T09:47:20.542Z,32.22
2022-11-14T09:50:11.542Z,34.05
2022-11-14T09:52:58.868Z,34.20
2022-11-14T09:55:44.715Z,34.22
2022-11-14T10:01:37.532Z,36.38
2022-11-14T10:04:41.793Z,30.80
2022-11-14T10:07:36.994Z,28.42
2022-11-14T10:10:33.342Z,28.05
2022-11-14T10:13:42.006Z,31.92
2022-11-14T10:16:36.851Z,27.05
2022-11-14T10:19:41.559Z,31.17
2022-11-14T10:22:28.910Z,26.63
2022-11-14T10:25:22.158Z,31.02
2022-11-14T10:28:08.116Z,28.55
2022-11-14T10:31:09.428Z,31.70
2022-11-14T10:33:55.284Z,31.20
2022-11-14T10:36:41.137Z,31.38
2022-11-14T10:39:27.079Z,32.92
2022-11-14T10:42:26.721Z,33.40
2022-11-14T10:45:12.851Z,30.88
2022-11-14T10:48:01.041Z,35.60
2022-11-14T10:50:46.723Z,35.60
2022-11-14T10:53:35.757Z,27.50
2022-11-14T10:56:22.228Z,30.17
2022-11-14T10:59:09.801Z,26.73
2022-11-14T11:01:57.204Z,30.27
2022-11-14T11:04:43.711Z,27.15
2022-11-14T11:07:48.108Z,31.15
2022-11-14T11:10:53.877Z,34.65
2022-11-14T11:13:51.653Z,35.72
2022-11-14T11:16:37.593Z,35.10
2022-11-14T11:19:25.140Z,33.63
2022-11-14T11:22:29.798Z,40.13
2022-11-14T11:25:35.889Z,41.53
2022-11-14T11:28:22.909Z,41.45
2022-11-14T11:31:10.602Z,39.03
2022-11-14T11:33:56.870Z,43.50
2022-11-14T11:36:48.050Z,39.75
2022-11-14T11:39:36.664Z,42.28
2022-11-14T11:43:23.704Z,41.55
2022-11-14T11:45:47.121Z,41.55
2022-11-14T11:48:39.282Z,44.35
2022-11-14T11:51:27.058Z,47.08
2022-11-14T11:54:20.887Z,47.00
2022-11-14T11:57:11.372Z,47.30
2022-11-14T12:00:02.346Z,51.45
2022-11-14T12:02:50.477Z,53.45
2022-11-14T12:05:55.386Z,52.17
2022-11-14T12:08:40.958Z,48.88
2022-11-14T12:11:27.957Z,59.47
2022-11-14T12:14:23.026Z,93.78
2022-11-14T12:17:09.065Z,70.18
2022-11-14T12:20:05.500Z,66.32
2022-11-14T12:23:06.738Z,80.75
2022-11-14T12:26:21.536Z,91.70
2022-11-14T12:29:25.908Z,55.58
2022-11-14T12:32:14.430Z,54.53
2022-11-14T12:35:01.336Z,50.80
2022-11-14T12:37:54.297Z,55.88
2022-11-14T12:40:42.884Z,55.03
2022-11-14T12:43:37.475Z,61.15
2022-11-14T12:46:23.881Z,64.50
2022-11-14T12:49:38.217Z,79.72
2022-11-14T12:52:36.617Z,56.88
2022-11-14T12:55:25.655Z,54.72
2022-11-14T12:58:30.614Z,58.70
2022-11-14T13:01:23.011Z,56.10
2022-11-14T13:04:11.844Z,57.88
2022-11-14T13:07:16.623Z,53.40
2022-11-14T13:10:15.169Z,52.05
2022-11-14T13:13:25.028Z,55.17
2022-11-14T13:16:42.981Z,55.13
2022-11-14T13:19:47.709Z,49.42
2022-11-14T13:22:53.842Z,53.08
2022-11-14T13:25:40.208Z,56.95
2022-11-14T13:28:38.385Z,53.28
2022-11-14T13:31:36.570Z,51.50
2022-11-14T13:34:41.255Z,52.88
2022-11-14T13:37:47.691Z,56.28
2022-11-14T13:40:51.971Z,70.07
2022-11-14T13:43:58.620Z,136.98
2022-11-14T13:46:53.542Z,93.68
2022-11-14T13:49:42.618Z,115.13
2022-11-14T13:52:30.070Z,90.18
2022-11-14T13:55:20.908Z,56.45
2022-11-14T13:58:26.231Z,51.28
2022-11-14T14:01:21.193Z,74.63
2022-11-14T14:04:25.393Z,61.00
2022-11-14T14:07:21.138Z,60.00
2022-11-14T14:10:19.602Z,53.22
2022-11-14T14:13:17.960Z,48.05
2022-11-14T14:16:25.871Z,53.30
2022-11-14T14:19:14.905Z,55.20
2022-11-14T14:22:00.737Z,55.50
2022-11-14T14:24:59.201Z,58.55
2022-11-14T14:28:04.018Z,55.28
2022-11-14T14:31:08.748Z,61.47
2022-11-14T14:33:54.802Z,50.53
2022-11-14T14:36:49.267Z,55.05
2022-11-14T14:39:35.267Z,50.63
2022-11-14T14:42:22.181Z,48.25
2022-11-14T14:45:18.794Z,49.55
2022-11-14T14:48:13.721Z,50.65
2022-11-14T14:51:00.688Z,51.05
2022-11-14T14:53:54.154Z,53.13
2022-11-14T14:56:40.036Z,55.47
2022-11-14T14:59:26.386Z,58.03
2022-11-14T15:02:17.958Z,53.83
2022-11-14T15:05:04.536Z,58.42
2022-11-14T15:07:51.612Z,52.75
2022-11-14T15:10:37.887Z,56.38
2022-11-14T15:13:24.446Z,55.90
2022-11-14T15:16:11.498Z,51.65
2022-11-14T15:18:58.904Z,54.65
2022-11-14T15:21:44.972Z,56.35
2022-11-14T15:24:31.253Z,76.55
2022-11-14T15:27:18.724Z,89.88
2022-11-14T15:30:06.793Z,68.03
2022-11-14T15:32:54.437Z,59.78
2022-11-14T15:35:41.059Z,67.72
2022-11-14T15:41:33.733Z,62.38
2022-11-14T15:44:32.876Z,55.97
2022-11-14T15:47:20.885Z,50.72
2022-11-14T15:50:22.016Z,46.50
2022-11-14T15:53:17.581Z,52.20
2022-11-14T15:56:03.251Z,47.17
2022-11-14T15:58:49.627Z,54.72
2022-11-14T16:01:35.752Z,60.63
2022-11-14T16:04:22.807Z,67.10
2022-11-14T16:07:11.596Z,69.55
2022-11-14T16:09:57.826Z,56.53
2022-11-14T16:12:47.968Z,62.10
2022-11-14T16:15:36.828Z,49.33
2022-11-14T16:18:22.797Z,46.08
2022-11-14T16:21:11.391Z,51.90
2022-11-14T16:23:58.083Z,55.15
2022-11-14T16:26:44.267Z,51.45
2022-11-14T16:29:30.434Z,55.35
2022-11-14T16:32:16.705Z,53.90
2022-11-14T16:35:02.656Z,51.28
2022-11-14T16:37:49.046Z,47.08
2022-11-14T16:40:35.241Z,46.97
2022-11-14T16:43:21.643Z,46.17
2022-11-14T16:46:08.105Z,52.65
2022-11-14T16:48:55.344Z,46.05
2022-11-14T16:51:50.362Z,49.85
2022-11-14T16:54:36.916Z,50.67
2022-11-14T16:57:23.132Z,61.63
2022-11-14T17:00:10.754Z,74.70
2022-11-14T17:02:56.923Z,60.08
2022-11-14T17:05:46.964Z,62.72
2022-11-14T17:08:32.970Z,59.85
2022-11-14T17:11:18.882Z,61.53
2022-11-14T17:14:04.884Z,58.70
2022-11-14T17:16:50.965Z,51.17
2022-11-14T17:19:38.979Z,50.35
2022-11-14T17:22:24.840Z,51.38
2022-11-14T17:25:11.096Z,66.78
2022-11-14T17:27:56.954Z,49.60
2022-11-14T17:30:43.177Z,64.70
2022-11-14T17:33:29.280Z,70.60
2022-11-14T17:36:15.057Z,71.28
2022-11-14T17:39:00.989Z,72.05
2022-11-14T17:41:47.075Z,50.67
2022-11-14T17:44:33.089Z,46.15
2022-11-14T17:47:19.246Z,50.53
2022-11-14T17:50:05.532Z,52.53
2022-11-14T17:52:51.669Z,43.55
2022-11-14T17:55:38.477Z,45.85
2022-11-14T17:58:25.058Z,42.97
2022-11-14T18:01:15.586Z,38.83
2022-11-14T18:04:06.130Z,45.08
2022-11-14T18:06:53.069Z,38.67
2022-11-14T18:09:39.793Z,37.72
2022-11-14T18:12:25.446Z,44.50
2022-11-14T18:15:11.635Z,46.20
2022-11-14T18:17:57.658Z,41.58
2022-11-14T18:20:43.581Z,40.28
2022-11-14T18:23:29.611Z,42.97
2022-11-14T18:26:16.682Z,40.15
2022-11-14T18:29:02.923Z,40.13
2022-11-14T18:31:48.606Z,39.25
2022-11-14T18:34:37.089Z,41.55
2022-11-14T18:37:23.480Z,39.15
2022-11-14T18:40:16.299Z,41.40
2022-11-14T18:43:02.460Z,48.17
2022-11-14T18:45:48.416Z,50.67
2022-11-14T18:48:35.490Z,49.38
2022-11-14T18:51:22.811Z,46.15
2022-11-14T18:54:13.177Z,48.35
2022-11-14T18:57:00.272Z,51.67
2022-11-14T18:59:46.195Z,44.58
2022-11-14T19:02:32.421Z,51.03
2022-11-14T19:05:18.242Z,47.42
2022-11-14T19:08:05.360Z,48.75
2022-11-14T19:10:51.307Z,45.47
2022-11-14T19:13:37.342Z,52.33
2022-11-14T19:16:23.691Z,44.30
2022-11-14T19:19:09.386Z,42.58
2022-11-14T19:21:55.363Z,49.60
2022-11-14T19:24:47.227Z,43.03
2022-11-14T19:27:33.382Z,46.13
2022-11-14T19:30:19.415Z,41.53
2022-11-14T19:33:05.521Z,44.78
2022-11-14T19:35:51.876Z,46.35
2022-11-14T19:38:37.965Z,43.80
2022-11-14T19:41:26.703Z,40.97
2022-11-14T19:44:13.109Z,40.83
2022-11-14T19:46:59.297Z,40.53
2022-11-14T19:49:45.501Z,38.22
2022-11-14T19:52:31.516Z,39.60
2022-11-14T19:55:17.413Z,40.15
2022-11-14T19:58:03.397Z,35.45
2022-11-14T20:00:49.490Z,36.92
2022-11-14T20:03:35.927Z,35.63
2022-11-14T20:06:23.521Z,34.25
2022-11-14T20:09:10.528Z,32.83
2022-11-14T20:11:56.406Z,38.05
2022-11-14T20:14:42.372Z,34.72
2022-11-14T20:17:28.331Z,34.90
2022-11-14T20:20:14.470Z,35.72
2022-11-14T20:23:00.468Z,33.72
2022-11-14T20:25:51.718Z,28.45
2022-11-14T20:28:37.503Z,24.52
2022-11-14T20:31:24.503Z,25.63
2022-11-14T20:34:11.262Z,22.27
2022-11-14T20:37:10.275Z,23.83
2022-11-14T20:39:57.881Z,22.98
2022-11-14T20:42:47.525Z,25.05
2022-11-14T20:45:33.725Z,22.42
2022-11-14T20:48:19.795Z,21.17
2022-11-14T20:51:07.185Z,25.65
2022-11-14T20:53:54.541Z,21.90
2022-11-14T20:56:40.818Z,18.98
2022-11-14T20:59:26.930Z,19.70
2022-11-14T21:02:14.457Z,17.77
2022-11-14T21:05:00.937Z,17.85
2022-11-14T21:07:47.025Z,17.25
2022-11-14T21:10:46.380Z,16.23
2022-11-14T21:13:53.699Z,16.27
2022-11-14T21:16:40.406Z,17.48
2022-11-14T21:19:26.880Z,16.17
2022-11-14T21:22:13.411Z,16.52
2022-11-14T21:24:59.521Z,17.45
2022-11-14T21:27:45.232Z,18.33
2022-11-14T21:30:34.729Z,18.42
2022-11-14T21:33:20.697Z,18.42
2022-11-14T21:36:22.840Z,13.50
2022-11-14T21:39:14.959Z,16.25
2022-11-14T21:42:01.473Z,12.40
2022-11-14T21:44:47.483Z,16.73
2022-11-14T21:47:34.145Z,15.52
2022-11-14T21:50:20.333Z,14.98
2022-11-14T21:53:15.864Z,14.20
2022-11-14T21:56:28.226Z,15.38
2022-11-14T21:59:18.658Z,14.05
2022-11-14T22:02:23.426Z,14.32
2022-11-14T22:05:09.383Z,14.48
2022-11-14T22:07:55.330Z,15.27
2022-11-14T22:10:41.185Z,14.85
2022-11-14T22:13:29.434Z,14.93
2022-11-14T22:16:19.658Z,13.65
2022-11-14T22:19:06.058Z,16.20
2022-11-14T22:21:52.932Z,14.50
2022-11-14T22:24:39.188Z,17.33
2022-11-14T22:27:25.015Z,16.98
2022-11-14T22:30:11.533Z,15.02
2022-11-14T22:32:59.934Z,15.43
2022-11-14T22:35:45.693Z,15.07
2022-11-14T22:38:32.479Z,14.90
2022-11-14T22:41:19.934Z,17.25
2022-11-14T22:44:05.843Z,17.63
2022-11-14T22:46:51.813Z,19.98
2022-11-14T22:49:37.767Z,17.17
2022-11-14T22:52:23.729Z,17.17
2022-11-14T22:55:15.206Z,18.35
2022-11-14T22:58:04.024Z,18.63
2022-11-14T23:00:50.389Z,15.90
2022-11-14T23:03:36.503Z,16.20
2022-11-14T23:06:23.213Z,18.38
2022-11-14T23:09:09.442Z,17.95
2022-11-14T23:11:55.502Z,16.20
2022-11-14T23:14:41.375Z,16.15
2022-11-14T23:17:27.480Z,18.33
2022-11-14T23:20:16.462Z,19.23
2022-11-14T23:23:02.934Z,16.63
2022-11-14T23:25:48.785Z,17.52
2022-11-14T23:28:35.137Z,22.88
2022-11-14T23:31:21.598Z,17.25
2022-11-14T23:34:07.898Z,17.83
2022-11-14T23:36:53.742Z,18.80
2022-11-14T23:39:39.787Z,17.55
2022-11-14T23:42:25.779Z,17.85
2022-11-14T23:45:11.710Z,19.25
2022-11-14T23:47:57.819Z,18.45
2022-11-14T23:50:44.263Z,18.85
2022-11-14T23:53:30.703Z,20.52
2022-11-14T23:56:16.857Z,20.30
2022-11-14T23:59:02.833Z,20.08
